createdAt,value
2017-11-15T00:00:12.550Z,65.8
2017-11-15T00:00:29.675Z,65.9
2017-11-15T00:00:44.832Z,66.1
2017-11-15T00:01:03.460Z,65.7
2017-11-15T00:01:14.726Z,66.1
2017-11-15T00:01:26.047Z,66
2017-11-15T00:01:41.382Z,65.7
2017-11-15T00:01:53.525Z,66.2
2017-11-15T00:02:04.950Z,66.1
2017-11-15T00:02:16.258Z,66.2
2017-11-15T00:02:27.625Z,66.2
2017-11-15T00:02:42.968Z,66
2017-11-15T00:02:59.237Z,65.9
2017-11-15T00:03:11.236Z,66.1
2017-11-15T00:03:22.655Z,65.9
2017-11-15T00:03:37.979Z,66
2017-11-15T00:03:54.153Z,65.8
2017-11-15T00:04:06.245Z,65.9
2017-11-15T00:04:17.939Z,65.9
2017-11-15T00:04:28.977Z,66
2017-11-15T00:04:44.360Z,66
2017-11-15T00:05:00.553Z,66.1
2017-11-15T00:05:16.677Z,66
2017-11-15T00:05:32.755Z,65.8
2017-11-15T00:05:48.938Z,66.2
2017-11-15T00:06:01.115Z,65.8
2017-11-15T00:06:16.459Z,65.8
2017-11-15T00:06:32.595Z,66.2
2017-11-15T00:06:48.774Z,65.7
2017-11-15T00:07:08.106Z,65.7
2017-11-15T00:07:20.257Z,65.7
2017-11-15T00:07:31.647Z,65.7
2017-11-15T00:07:46.973Z,66.1
2017-11-15T00:08:03.169Z,66
2017-11-15T00:08:15.321Z,66
2017-11-15T00:08:30.647Z,65.9
2017-11-15T00:08:42.809Z,66
2017-11-15T00:08:58.120Z,66
2017-11-15T00:09:14.302Z,66
2017-11-15T00:09:30.429Z,65.9
2017-11-15T00:09:46.611Z,65.9
2017-11-15T00:09:58.806Z,66
2017-11-15T00:10:10.191Z,66
2017-11-15T00:10:25.470Z,65.7
2017-11-15T00:10:41.616Z,65.8
2017-11-15T00:10:53.882Z,66
2017-11-15T00:11:09.224Z,66
2017-11-15T00:11:21.358Z,66
2017-11-15T00:11:42.562Z,66
2017-11-15T00:11:53.626Z,65.8
2017-11-15T00:12:04.962Z,65.8
2017-11-15T00:12:20.330Z,65.8
2017-11-15T00:12:32.499Z,65.8
2017-11-15T00:12:43.809Z,65.8
2017-11-15T00:12:59.154Z,66
2017-11-15T00:13:15.352Z,65.9
2017-11-15T00:13:27.483Z,65.8
2017-11-15T00:13:42.810Z,65.9
2017-11-15T00:13:58.986Z,65.9
2017-11-15T00:14:11.126Z,65.9
2017-11-15T00:14:26.416Z,65.8
2017-11-15T00:14:38.632Z,66.1
2017-11-15T00:14:54.001Z,66.2
2017-11-15T00:15:10.147Z,66.1
2017-11-15T00:15:22.346Z,66.1
2017-11-15T00:15:33.626Z,66.2
2017-11-15T00:15:49.023Z,65.9
2017-11-15T00:16:10.988Z,66.2
2017-11-15T00:16:22.094Z,66
2017-11-15T00:16:33.464Z,66.6
2017-11-15T00:16:48.733Z,66.4
2017-11-15T00:17:00.909Z,66.1
2017-11-15T00:17:12.264Z,66.3
2017-11-15T00:17:27.638Z,66.5
2017-11-15T00:17:39.816Z,66.7
2017-11-15T00:17:55.175Z,66.6
2017-11-15T00:18:21.290Z,66.6
2017-11-15T00:18:33.047Z,66.5
2017-11-15T00:18:44.485Z,66.5
2017-11-15T00:19:00.815Z,66.5
2017-11-15T00:19:15.940Z,67.2
2017-11-15T00:19:28.074Z,67.1
2017-11-15T00:19:43.434Z,67.2
2017-11-15T00:19:59.646Z,66.9
2017-11-15T00:20:15.804Z,66.8
2017-11-15T00:20:31.892Z,67.1
2017-11-15T00:20:48.082Z,67.2
2017-11-15T00:21:04.192Z,66.9
2017-11-15T00:21:16.414Z,67
2017-11-15T00:21:28.717Z,67.2
2017-11-15T00:21:44.640Z,67.1
2017-11-15T00:22:01.620Z,67.1
2017-11-15T00:22:13.010Z,66.5
2017-11-15T00:22:28.293Z,66.5
2017-11-15T00:22:44.476Z,66.6
2017-11-15T00:22:56.627Z,67.1
2017-11-15T00:23:11.968Z,67
2017-11-15T00:23:24.153Z,67
2017-11-15T00:23:39.520Z,66.7
2017-11-15T00:23:55.627Z,66.4
2017-11-15T00:24:11.810Z,67
2017-11-15T00:24:28.008Z,66.5
2017-11-15T00:24:44.221Z,67.2
2017-11-15T00:24:56.250Z,66.7
2017-11-15T00:25:11.646Z,66.5
2017-11-15T00:25:23.739Z,66.9
2017-11-15T00:25:35.096Z,66.4
2017-11-15T00:25:50.499Z,66.6
2017-11-15T00:26:02.618Z,67
2017-11-15T00:26:18.013Z,67
2017-11-15T00:26:30.128Z,67
2017-11-15T00:26:41.491Z,67.1
2017-11-15T00:26:56.879Z,66.7
2017-11-15T00:27:08.977Z,66.7
2017-11-15T00:27:24.325Z,66.7
2017-11-15T00:27:36.480Z,66.5
2017-11-15T00:27:49.521Z,67.1
2017-11-15T00:28:00.798Z,67.1
2017-11-15T00:28:12.183Z,66.5
2017-11-15T00:28:23.566Z,66.5
2017-11-15T00:28:34.877Z,66.5
2017-11-15T00:28:53.429Z,67
2017-11-15T00:29:05.540Z,66.8
2017-11-15T00:29:16.930Z,66.6
2017-11-15T00:29:32.297Z,66.4
2017-11-15T00:29:44.427Z,66.9
2017-11-15T00:29:55.865Z,66.5
2017-11-15T00:30:11.153Z,67
2017-11-15T00:30:23.319Z,66.8
2017-11-15T00:30:34.640Z,67
2017-11-15T00:30:59.952Z,67.3
2017-11-15T00:31:15.765Z,67.2
2017-11-15T00:31:27.997Z,66.5
2017-11-15T00:31:43.396Z,66.5
2017-11-15T00:31:55.415Z,66.5
2017-11-15T00:32:06.741Z,66.5
2017-11-15T00:32:18.145Z,67
2017-11-15T00:32:33.482Z,66.8
2017-11-15T00:32:49.611Z,67.2
2017-11-15T00:33:01.777Z,67.1
2017-11-15T00:33:17.088Z,66.9
2017-11-15T00:33:29.297Z,66.7
2017-11-15T00:33:41.691Z,66.6
2017-11-15T00:33:53.589Z,66.4
2017-11-15T00:34:08.926Z,66.3
2017-11-15T00:34:21.119Z,66.5
2017-11-15T00:34:32.433Z,66.6
2017-11-15T00:34:43.799Z,66.4
2017-11-15T00:34:55.167Z,66.3
2017-11-15T00:35:06.482Z,66.4
2017-11-15T00:35:18.023Z,66.7
2017-11-15T00:35:33.391Z,66.6
2017-11-15T00:35:45.301Z,66.4
2017-11-15T00:35:56.742Z,66.4
2017-11-15T00:36:08.043Z,66.6
2017-11-15T00:36:19.440Z,66.2
2017-11-15T00:36:30.772Z,66.7
2017-11-15T00:36:42.110Z,66.4
2017-11-15T00:36:53.472Z,66.8
2017-11-15T00:37:04.907Z,66.8
2017-11-15T00:37:20.137Z,66.2
2017-11-15T00:37:32.318Z,66.8
2017-11-15T00:37:43.707Z,66.8
2017-11-15T00:37:55.047Z,66.7
2017-11-15T00:38:16.023Z,66.7
2017-11-15T00:38:29.088Z,66.9
2017-11-15T00:38:40.279Z,66.9
2017-11-15T00:38:55.684Z,66.9
2017-11-15T00:39:11.801Z,66.8
2017-11-15T00:39:27.978Z,66.4
2017-11-15T00:39:40.139Z,66.6
2017-11-15T00:39:55.474Z,66.8
2017-11-15T00:40:07.647Z,66.3
2017-11-15T00:40:18.974Z,66.7
2017-11-15T00:40:30.283Z,66.3
2017-11-15T00:40:41.645Z,66.3
2017-11-15T00:40:56.987Z,66.4
2017-11-15T00:41:13.191Z,66.6
2017-11-15T00:41:25.328Z,67
2017-11-15T00:41:36.623Z,66.8
2017-11-15T00:41:48.037Z,66.2
2017-11-15T00:42:03.397Z,66.2
2017-11-15T00:42:15.640Z,66.4
2017-11-15T00:42:26.893Z,66.4
2017-11-15T00:42:42.213Z,66.5
2017-11-15T00:42:58.414Z,66.2
2017-11-15T00:43:14.566Z,66.5
2017-11-15T00:43:26.695Z,66.6
2017-11-15T00:43:42.067Z,66.6
2017-11-15T00:43:54.193Z,66.5
2017-11-15T00:44:05.548Z,66.6
2017-11-15T00:44:16.928Z,66.8
2017-11-15T00:44:32.309Z,66.3
2017-11-15T00:44:48.406Z,66.6
2017-11-15T00:45:05.582Z,66.3
2017-11-15T00:45:20.860Z,66.6
2017-11-15T00:45:36.879Z,66.7
2017-11-15T00:45:49.026Z,66.5
2017-11-15T00:46:00.428Z,66.7
2017-11-15T00:46:11.871Z,66.7
2017-11-15T00:46:23.126Z,66.5
2017-11-15T00:46:48.483Z,66.8
2017-11-15T00:47:04.259Z,66.7
2017-11-15T00:47:20.644Z,66.5
2017-11-15T00:47:33.268Z,66.3
2017-11-15T00:47:45.479Z,66.7
2017-11-15T00:48:00.913Z,66.8
2017-11-15T00:48:16.998Z,66.9
2017-11-15T00:48:33.140Z,66.3
2017-11-15T00:48:45.314Z,67.1
2017-11-15T00:49:00.639Z,66.8
2017-11-15T00:49:16.813Z,66.6
2017-11-15T00:49:32.924Z,66.7
2017-11-15T00:49:45.129Z,66.8
2017-11-15T00:49:56.512Z,66.2
2017-11-15T00:50:11.809Z,66.9
2017-11-15T00:50:23.941Z,66.9
2017-11-15T00:50:35.361Z,67.2
2017-11-15T00:50:51.790Z,67.1
2017-11-15T00:51:02.819Z,67.1
2017-11-15T00:51:14.290Z,67
2017-11-15T00:51:25.582Z,67
2017-11-15T00:51:36.920Z,66.7
2017-11-15T00:51:48.216Z,66.2
2017-11-15T00:51:59.569Z,66.8
2017-11-15T00:52:11.008Z,66.7
2017-11-15T00:52:23.887Z,66.4
2017-11-15T00:52:39.232Z,66.4
2017-11-15T00:52:51.443Z,66.7
2017-11-15T00:53:06.763Z,66.9
2017-11-15T00:53:18.929Z,66.8
2017-11-15T00:53:34.264Z,67.2
2017-11-15T00:53:50.449Z,67.1
2017-11-15T00:54:06.574Z,67.2
2017-11-15T00:54:18.696Z,67.2
2017-11-15T00:54:30.075Z,66.8
2017-11-15T00:54:45.474Z,67.2
2017-11-15T00:54:57.596Z,67.2
2017-11-15T00:55:13.952Z,67.2
2017-11-15T00:55:25.047Z,67.2
2017-11-15T00:55:40.442Z,67
2017-11-15T00:55:56.598Z,66.9
2017-11-15T00:56:12.732Z,66.8
2017-11-15T00:56:29.270Z,67
2017-11-15T00:56:41.102Z,67.1
2017-11-15T00:56:58.038Z,67.7
2017-11-15T00:57:10.183Z,67.5
2017-11-15T00:57:21.493Z,67.7
2017-11-15T00:57:32.897Z,67.5
2017-11-15T00:57:48.237Z,67.4
2017-11-15T00:58:04.385Z,67
2017-11-15T00:58:20.543Z,67.5
2017-11-15T00:58:32.702Z,67.6
2017-11-15T00:58:48.045Z,67.5
2017-11-15T00:59:00.167Z,67.5
2017-11-15T00:59:11.513Z,67.2
2017-11-15T00:59:26.845Z,67
2017-11-15T00:59:39.292Z,67.1
2017-11-15T00:59:50.373Z,66.8
2017-11-15T01:00:05.754Z,66.8
2017-11-15T01:00:17.901Z,66.8
2017-11-15T01:00:30.274Z,67
2017-11-15T01:00:42.255Z,67.2
2017-11-15T01:00:53.497Z,66.8
2017-11-15T01:01:04.929Z,66.9
2017-11-15T01:01:16.291Z,66.8
2017-11-15T01:01:31.573Z,66.9
2017-11-15T01:01:43.836Z,66.6
2017-11-15T01:01:55.794Z,66.6
2017-11-15T01:02:08.149Z,66.7
2017-11-15T01:02:19.429Z,66.7
2017-11-15T01:02:34.773Z,67
2017-11-15T01:02:50.894Z,67
2017-11-15T01:03:03.089Z,66.9
2017-11-15T01:03:18.416Z,66.9
2017-11-15T01:03:34.641Z,66.9
2017-11-15T01:03:46.778Z,67
2017-11-15T01:04:02.143Z,67
2017-11-15T01:04:14.326Z,67.4
2017-11-15T01:04:37.634Z,67.1
2017-11-15T01:05:09.260Z,67.3
2017-11-15T01:05:20.402Z,67.2
2017-11-15T01:05:31.810Z,67.1
2017-11-15T01:05:43.052Z,67
2017-11-15T01:05:54.398Z,67.1
2017-11-15T01:06:05.740Z,67.2
2017-11-15T01:06:17.131Z,67.2
2017-11-15T01:06:28.471Z,66.9
2017-11-15T01:06:39.799Z,67.1
2017-11-15T01:06:51.162Z,67.1
2017-11-15T01:07:06.473Z,67.1
2017-11-15T01:07:18.730Z,67.1
2017-11-15T01:07:30.059Z,67.3
2017-11-15T01:07:41.405Z,66.8
2017-11-15T01:07:56.804Z,67.2
2017-11-15T01:08:12.916Z,67.3
2017-11-15T01:08:25.002Z,67.2
2017-11-15T01:08:36.431Z,67.3
2017-11-15T01:08:47.762Z,66.8
2017-11-15T01:08:59.200Z,66.6
2017-11-15T01:09:10.447Z,67
2017-11-15T01:09:21.778Z,66.6
2017-11-15T01:09:33.112Z,66.5
2017-11-15T01:09:44.583Z,66.7
2017-11-15T01:09:55.827Z,66.3
2017-11-15T01:10:07.260Z,66.6
2017-11-15T01:10:20.210Z,66.2
2017-11-15T01:10:35.526Z,66.7
2017-11-15T01:10:47.653Z,66.3
2017-11-15T01:10:59.057Z,66.8
2017-11-15T01:11:10.478Z,66.8
2017-11-15T01:11:21.807Z,66.2
2017-11-15T01:11:33.195Z,66.7
2017-11-15T01:11:48.499Z,66.5
2017-11-15T01:12:00.670Z,66.3
2017-11-15T01:12:11.975Z,66.3
2017-11-15T01:12:23.371Z,66.3
2017-11-15T01:12:34.686Z,66.7
2017-11-15T01:12:45.989Z,66.4
2017-11-15T01:12:57.331Z,66.7
2017-11-15T01:13:08.696Z,66.6
2017-11-15T01:13:24.128Z,66.6
2017-11-15T01:13:36.380Z,66.6
2017-11-15T01:13:51.606Z,67.1
2017-11-15T01:14:07.713Z,66.8
2017-11-15T01:14:23.807Z,66.4
2017-11-15T01:14:36.035Z,66.8
2017-11-15T01:14:47.392Z,66.7
2017-11-15T01:14:58.957Z,66.8
2017-11-15T01:15:10.066Z,66.4
2017-11-15T01:15:21.484Z,67.2
2017-11-15T01:15:36.787Z,66.7
2017-11-15T01:15:52.937Z,66.5
2017-11-15T01:16:05.101Z,66
2017-11-15T01:16:16.559Z,66.2
2017-11-15T01:16:27.764Z,66.8
2017-11-15T01:16:39.440Z,67.2
2017-11-15T01:16:54.479Z,67
2017-11-15T01:17:06.649Z,67.1
2017-11-15T01:17:21.988Z,67.2
2017-11-15T01:17:38.159Z,66.4
2017-11-15T01:17:54.301Z,66.3
2017-11-15T01:18:06.458Z,66.3
2017-11-15T01:18:18.340Z,66.4
2017-11-15T01:18:34.757Z,66.9
2017-11-15T01:18:51.060Z,66.5
2017-11-15T01:19:07.055Z,66.4
2017-11-15T01:19:23.209Z,66.5
2017-11-15T01:19:39.370Z,66.5
2017-11-15T01:19:51.644Z,66.4
2017-11-15T01:20:06.891Z,66.5
2017-11-15T01:20:19.112Z,66.4
2017-11-15T01:20:34.380Z,66.7
2017-11-15T01:20:46.622Z,66.6
2017-11-15T01:20:57.914Z,66.8
2017-11-15T01:21:13.342Z,66.4
2017-11-15T01:21:25.408Z,66.3
2017-11-15T01:21:36.757Z,66.5
2017-11-15T01:21:48.112Z,66.3
2017-11-15T01:21:59.540Z,66.3
2017-11-15T01:22:10.913Z,66.6
2017-11-15T01:22:22.148Z,66.2
2017-11-15T01:22:37.597Z,65.9
2017-11-15T01:22:53.729Z,65.9
2017-11-15T01:23:09.860Z,66.4
2017-11-15T01:23:21.991Z,66.5
2017-11-15T01:23:37.394Z,66.4
2017-11-15T01:23:49.634Z,66.1
2017-11-15T01:24:02.473Z,66.3
2017-11-15T01:24:20.308Z,66.2
2017-11-15T01:24:35.502Z,66.4
2017-11-15T01:24:51.693Z,66.4
2017-11-15T01:25:03.842Z,66
2017-11-15T01:25:19.190Z,66.1
2017-11-15T01:25:31.383Z,66.1
2017-11-15T01:25:42.741Z,66.1
2017-11-15T01:25:54.002Z,66.3
2017-11-15T01:26:05.440Z,66
2017-11-15T01:26:20.755Z,65.9
2017-11-15T01:26:32.880Z,66.2
2017-11-15T01:26:44.276Z,66.5
2017-11-15T01:26:59.645Z,66.4
2017-11-15T01:27:11.766Z,66.3
2017-11-15T01:27:23.140Z,66.5
2017-11-15T01:27:34.490Z,66.5
2017-11-15T01:28:09.974Z,66.3
2017-11-15T01:28:21.411Z,66
2017-11-15T01:28:36.703Z,66
2017-11-15T01:28:48.794Z,66.2
2017-11-15T01:29:00.183Z,65.9
2017-11-15T01:29:11.612Z,66.2
2017-11-15T01:29:22.937Z,66.7
2017-11-15T01:29:34.329Z,66.6
2017-11-15T01:29:49.661Z,66.1
2017-11-15T01:30:33.846Z,66.6
2017-11-15T01:30:45.197Z,66
2017-11-15T01:31:00.589Z,66.1
2017-11-15T01:31:12.742Z,66.2
2017-11-15T01:31:28.084Z,66.2
2017-11-15T01:31:40.186Z,66.1
2017-11-15T01:31:51.573Z,66.2
2017-11-15T01:32:02.998Z,66.2
2017-11-15T01:32:20.767Z,66.1
2017-11-15T01:32:36.005Z,66.2
2017-11-15T01:32:48.170Z,66.1
2017-11-15T01:33:03.543Z,66.2
2017-11-15T01:33:19.871Z,66.1
2017-11-15T01:33:35.932Z,65.9
2017-11-15T01:33:48.025Z,66
2017-11-15T01:34:03.410Z,66.1
2017-11-15T01:34:15.564Z,66.1
2017-11-15T01:34:26.880Z,66.2
2017-11-15T01:34:42.201Z,66.1
2017-11-15T01:34:54.390Z,66.2
2017-11-15T01:35:05.787Z,66.2
2017-11-15T01:35:17.131Z,66
2017-11-15T01:35:28.420Z,66.2
2017-11-15T01:35:39.821Z,66.2
2017-11-15T01:35:52.716Z,66.1
2017-11-15T01:36:08.149Z,66.2
2017-11-15T01:36:20.277Z,65.9
2017-11-15T01:36:31.624Z,66.2
2017-11-15T01:36:42.981Z,66
2017-11-15T01:36:58.311Z,66
2017-11-15T01:37:14.455Z,66.2
2017-11-15T01:37:30.618Z,66.1
2017-11-15T01:37:42.802Z,66.1
2017-11-15T01:37:58.115Z,66.5
2017-11-15T01:38:14.323Z,66.5
2017-11-15T01:38:26.443Z,66.3
2017-11-15T01:38:37.792Z,66.7
2017-11-15T01:38:53.171Z,66.2
2017-11-15T01:39:09.369Z,66.7
2017-11-15T01:39:25.482Z,66
2017-11-15T01:39:37.614Z,66.6
2017-11-15T01:39:48.986Z,66.3
2017-11-15T01:40:04.330Z,66.6
2017-11-15T01:40:16.463Z,66.3
2017-11-15T01:40:27.928Z,66.2
2017-11-15T01:40:39.201Z,66.3
2017-11-15T01:40:50.556Z,66.4
2017-11-15T01:41:01.890Z,66.3
2017-11-15T01:41:17.322Z,66.6
2017-11-15T01:41:33.407Z,66.5
2017-11-15T01:41:49.523Z,66.5
2017-11-15T01:42:05.704Z,66.1
2017-11-15T01:42:21.866Z,66
2017-11-15T01:42:34.001Z,66
2017-11-15T01:42:49.337Z,66.6
2017-11-15T01:43:01.527Z,66.6
2017-11-15T01:43:18.485Z,66.3
2017-11-15T01:43:30.912Z,66.2
2017-11-15T01:43:46.002Z,66.4
2017-11-15T01:44:02.151Z,66.1
2017-11-15T01:44:14.280Z,66.3
2017-11-15T01:44:25.625Z,66.4
2017-11-15T01:44:36.925Z,66
2017-11-15T01:44:48.260Z,66.1
2017-11-15T01:45:03.740Z,66.1
2017-11-15T01:45:15.822Z,66.3
2017-11-15T01:45:31.169Z,66.1
2017-11-15T01:45:43.314Z,66.1
2017-11-15T01:45:55.312Z,66
2017-11-15T01:46:07.626Z,66.1
2017-11-15T01:46:18.974Z,66.2
2017-11-15T01:46:30.309Z,66.2
2017-11-15T01:46:41.678Z,66.1
2017-11-15T01:46:53.027Z,66
2017-11-15T01:47:04.379Z,66.2
2017-11-15T01:47:15.750Z,66.2
2017-11-15T01:47:27.257Z,66.5
2017-11-15T01:47:42.438Z,65.9
2017-11-15T01:47:54.583Z,65.7
2017-11-15T01:48:09.950Z,65.9
2017-11-15T01:48:22.122Z,66.1
2017-11-15T01:48:35.063Z,66
2017-11-15T01:48:50.457Z,65.8
2017-11-15T01:49:02.572Z,66
2017-11-15T01:49:13.987Z,65.9
2017-11-15T01:49:26.870Z,66.2
2017-11-15T01:49:42.219Z,66.2
2017-11-15T01:49:58.404Z,66.3
2017-11-15T01:50:10.545Z,66.1
2017-11-15T01:50:21.866Z,66
2017-11-15T01:50:33.192Z,66.4
2017-11-15T01:50:44.610Z,66.4
2017-11-15T01:50:55.947Z,66.3
2017-11-15T01:51:07.320Z,66
2017-11-15T01:51:18.668Z,66.3
2017-11-15T01:51:30.012Z,66.3
2017-11-15T01:51:45.359Z,66.4
2017-11-15T01:51:57.545Z,66.4
2017-11-15T01:52:12.831Z,66.1
2017-11-15T01:52:29.036Z,66.2
2017-11-15T01:52:41.153Z,66.4
2017-11-15T01:52:52.624Z,66.1
2017-11-15T01:53:03.882Z,66
2017-11-15T01:53:15.223Z,66
2017-11-15T01:53:30.627Z,66.1
2017-11-15T01:53:42.723Z,66.3
2017-11-15T01:53:54.100Z,66.2
2017-11-15T01:54:09.432Z,66.4
2017-11-15T01:54:21.596Z,65.9
2017-11-15T01:54:36.929Z,66.2
2017-11-15T01:54:49.140Z,66.4
2017-11-15T01:55:03.664Z,66.1
2017-11-15T01:55:19.015Z,66
2017-11-15T01:55:31.191Z,66.5
2017-11-15T01:55:46.497Z,66.2
2017-11-15T01:56:03.151Z,66.1
2017-11-15T01:56:14.834Z,66.5
2017-11-15T01:56:26.165Z,66
2017-11-15T01:56:41.499Z,66.2
2017-11-15T01:56:53.690Z,66.2
2017-11-15T01:57:09.028Z,66.2
2017-11-15T01:57:21.172Z,66.4
2017-11-15T01:57:36.592Z,66.2
2017-11-15T01:57:52.729Z,66.3
2017-11-15T01:58:04.804Z,66.4
2017-11-15T01:58:16.155Z,66.2
2017-11-15T01:58:27.527Z,66
2017-11-15T01:58:38.869Z,66.1
2017-11-15T01:58:54.282Z,66.1
2017-11-15T01:59:06.406Z,66.2
2017-11-15T01:59:21.781Z,66.7
2017-11-15T01:59:33.941Z,66.6
2017-11-15T01:59:49.218Z,66.6
2017-11-15T02:00:05.388Z,66.4
2017-11-15T02:00:21.594Z,66.4
2017-11-15T02:00:37.660Z,66.4
2017-11-15T02:00:49.933Z,66.5
2017-11-15T02:01:01.226Z,66.2
2017-11-15T02:01:12.643Z,66.6
2017-11-15T02:01:23.909Z,66.6
2017-11-15T02:01:35.251Z,66
2017-11-15T02:01:46.674Z,65.9
2017-11-15T02:01:57.991Z,66
2017-11-15T02:02:13.326Z,66.7
2017-11-15T02:02:29.518Z,65.9
2017-11-15T02:02:41.695Z,66.2
2017-11-15T02:02:57.029Z,66.1
2017-11-15T02:03:13.172Z,66.1
2017-11-15T02:03:25.342Z,66
2017-11-15T02:03:36.692Z,66.2
2017-11-15T02:03:53.018Z,66.2
2017-11-15T02:04:04.122Z,66
2017-11-15T02:04:15.520Z,66.2
2017-11-15T02:04:30.869Z,66.1
2017-11-15T02:04:47.065Z,66.2
2017-11-15T02:04:59.232Z,66.1
2017-11-15T02:05:14.530Z,66.2
2017-11-15T02:05:26.705Z,66
2017-11-15T02:05:42.019Z,66.2
2017-11-15T02:05:54.170Z,66.2
2017-11-15T02:06:05.531Z,66.1
2017-11-15T02:06:20.927Z,66.4
2017-11-15T02:06:33.058Z,66.2
2017-11-15T02:06:48.431Z,66.4
2017-11-15T02:07:04.591Z,66.1
2017-11-15T02:07:20.703Z,66.2
2017-11-15T02:07:37.536Z,66
2017-11-15T02:07:48.985Z,66.2
2017-11-15T02:08:04.331Z,65.9
2017-11-15T02:08:17.527Z,66.4
2017-11-15T02:08:33.494Z,66.2
2017-11-15T02:20:30.389Z,66
2017-11-15T02:20:42.657Z,66.2
2017-11-15T02:20:53.994Z,66
2017-11-15T02:21:05.388Z,66.1
2017-11-15T02:21:16.729Z,66.3
2017-11-15T02:21:28.047Z,66.4
2017-11-15T02:21:39.416Z,66.4
2017-11-15T02:21:54.704Z,66.5
2017-11-15T02:22:07.428Z,66.5
2017-11-15T02:22:23.870Z,66.5
2017-11-15T02:22:39.944Z,66.3
2017-11-15T02:22:52.187Z,66.4
2017-11-15T02:23:03.804Z,66.1
2017-11-15T02:23:18.888Z,66.1
2017-11-15T02:23:35.085Z,66.5
2017-11-15T02:23:47.103Z,66.4
2017-11-15T02:24:02.547Z,66.7
2017-11-15T02:24:14.696Z,66.6
2017-11-15T02:24:27.408Z,66.7
2017-11-15T02:24:41.018Z,66.6
2017-11-15T02:24:51.969Z,66.4
2017-11-15T02:25:03.337Z,66.3
2017-11-15T02:25:14.838Z,66.2
2017-11-15T02:25:26.019Z,66.4
2017-11-15T02:25:37.269Z,66.3
2017-11-15T02:25:52.693Z,66.3
2017-11-15T02:26:04.886Z,66.3
2017-11-15T02:26:20.275Z,66.2
2017-11-15T02:26:32.378Z,66.1
2017-11-15T02:26:43.762Z,66.5
2017-11-15T02:26:59.068Z,66.3
2017-11-15T02:27:11.295Z,66.3
2017-11-15T02:27:26.635Z,66.1
2017-11-15T02:27:42.727Z,66.3
2017-11-15T02:27:54.933Z,66.4
2017-11-15T02:28:06.288Z,66.3
2017-11-15T02:28:17.648Z,66.7
2017-11-15T02:28:30.950Z,66.2
2017-11-15T02:28:41.933Z,66.6
2017-11-15T02:28:55.224Z,66.7
2017-11-15T02:29:06.217Z,66.3
2017-11-15T02:29:21.593Z,66.2
2017-11-15T02:29:33.745Z,66.2
2017-11-15T02:29:45.111Z,66.5
2017-11-15T02:30:00.453Z,66.4
2017-11-15T02:30:16.579Z,66.4
2017-11-15T02:30:28.786Z,66.1
2017-11-15T02:30:41.105Z,66
2017-11-15T02:30:53.115Z,65.8
2017-11-15T02:31:09.847Z,65.6
2017-11-15T02:31:26.099Z,66
2017-11-15T02:31:38.265Z,66.2
2017-11-15T02:32:18.001Z,66.1
2017-11-15T02:32:34.019Z,65.9
2017-11-15T02:32:46.152Z,66.4
2017-11-15T02:32:58.492Z,66.4
2017-11-15T02:33:14.467Z,66.4
2017-11-15T02:33:26.587Z,66
2017-11-15T02:33:37.897Z,66
2017-11-15T02:33:53.299Z,66.1
2017-11-15T02:34:11.588Z,66.1
2017-11-15T02:34:27.188Z,66.1
2017-11-15T02:34:39.377Z,66.1
2017-11-15T02:34:54.722Z,66.1
2017-11-15T02:35:10.869Z,66.2
2017-11-15T02:35:27.022Z,66.1
2017-11-15T02:35:43.341Z,66.4
2017-11-15T02:36:01.296Z,66.3
2017-11-15T02:36:17.044Z,66.4
2017-11-15T02:36:29.187Z,66.1
2017-11-15T02:37:06.288Z,66.5
2017-11-15T02:37:17.694Z,66.4
2017-11-15T02:37:29.089Z,66.1
2017-11-15T02:37:40.443Z,66.2
2017-11-15T02:37:51.720Z,66.2
2017-11-15T02:38:03.044Z,65.9
2017-11-15T02:38:14.444Z,66.2
2017-11-15T02:38:31.909Z,66.2
2017-11-15T02:38:43.510Z,66.2
2017-11-15T02:38:54.932Z,66
2017-11-15T02:39:30.333Z,66
2017-11-15T02:39:41.668Z,66.1
2017-11-15T02:39:53.057Z,66.2
2017-11-15T02:40:04.410Z,66.1
2017-11-15T02:40:15.750Z,66.4
2017-11-15T02:40:27.126Z,66
2017-11-15T02:41:08.801Z,65.9
2017-11-15T02:41:22.454Z,66
2017-11-15T02:41:33.426Z,66.1
2017-11-15T02:41:46.814Z,66.5
2017-11-15T02:41:59.598Z,66.6
2017-11-15T02:42:10.694Z,66.7
2017-11-15T02:42:22.008Z,66.7
2017-11-15T02:42:37.364Z,66.1
2017-11-15T02:42:49.501Z,66.1
2017-11-15T02:43:02.505Z,66.1
2017-11-15T02:43:27.776Z,66.1
2017-11-15T02:43:43.511Z,66.5
2017-11-15T02:44:02.151Z,66.1
2017-11-15T02:44:17.444Z,66.5
2017-11-15T02:44:33.553Z,66.2
2017-11-15T02:44:49.753Z,66.4
2017-11-15T02:45:05.877Z,66.2
2017-11-15T02:45:18.303Z,66.4
2017-11-15T02:45:33.415Z,66
2017-11-15T02:45:45.571Z,65.9
2017-11-15T02:46:00.985Z,66.1
2017-11-15T02:46:17.075Z,65.9
2017-11-15T02:46:29.319Z,66
2017-11-15T02:46:51.640Z,66.1
2017-11-15T02:47:05.439Z,66
2017-11-15T02:47:17.649Z,66.1
2017-11-15T02:47:41.178Z,66.2
2017-11-15T02:47:53.283Z,66.1
2017-11-15T02:48:08.625Z,66.1
2017-11-15T02:48:20.677Z,66.4
2017-11-15T02:48:36.095Z,66.4
2017-11-15T02:49:00.785Z,66.2
2017-11-15T02:49:16.336Z,66.1
2017-11-15T02:49:32.507Z,66.1
2017-11-15T02:49:44.636Z,66.4
2017-11-15T02:50:02.328Z,66.4
2017-11-15T02:50:17.737Z,66.1
2017-11-15T02:50:33.884Z,66
2017-11-15T02:50:46.106Z,66.1
2017-11-15T02:51:13.889Z,65.8
2017-11-15T02:51:24.826Z,66
2017-11-15T02:51:36.258Z,66.1
2017-11-15T02:51:47.541Z,66
2017-11-15T02:52:18.863Z,65.9
2017-11-15T02:52:30.947Z,66
2017-11-15T02:52:42.362Z,66
2017-11-15T02:52:53.723Z,65.8
2017-11-15T02:53:05.698Z,66
2017-11-15T02:53:20.314Z,65.8
2017-11-15T02:53:32.573Z,65.6
2017-11-15T02:53:56.503Z,66
2017-11-15T02:54:08.115Z,65.9
2017-11-15T02:54:19.503Z,65.8
2017-11-15T02:54:34.816Z,66.1
2017-11-15T02:54:47.049Z,66.4
2017-11-15T02:54:58.314Z,65.8
2017-11-15T02:55:09.647Z,65.7
2017-11-15T02:55:20.995Z,66
2017-11-15T02:55:38.390Z,66.1
2017-11-15T02:55:50.145Z,66.1
2017-11-15T02:56:01.510Z,66
2017-11-15T02:56:20.344Z,66.1
2017-11-15T02:56:36.173Z,65.8
2017-11-15T02:56:48.347Z,66.1
2017-11-15T02:57:05.306Z,66
2017-11-15T02:57:17.407Z,66.1
2017-11-15T02:57:28.774Z,66.1
2017-11-15T02:57:40.106Z,66.1
2017-11-15T02:57:51.477Z,66.2
2017-11-15T02:58:02.877Z,66
2017-11-15T02:58:14.175Z,66.4
2017-11-15T02:58:25.585Z,66.4
2017-11-15T02:58:36.937Z,66.1
2017-11-15T02:58:52.331Z,66.2
2017-11-15T02:59:14.087Z,66.4
2017-11-15T02:59:29.321Z,66
2017-11-15T02:59:41.501Z,65.8
2017-11-15T02:59:52.874Z,66.5
2017-11-15T03:00:08.196Z,66.1
2017-11-15T03:01:01.093Z,66.3
2017-11-15T03:01:11.991Z,66.5
2017-11-15T03:01:23.274Z,66.1
2017-11-15T03:01:34.567Z,66.4
2017-11-15T03:01:45.968Z,66.9
2017-11-15T03:01:57.309Z,66.5
2017-11-15T03:02:25.559Z,66.7
2017-11-15T03:02:58.543Z,66.3
2017-11-15T03:03:13.853Z,66.5
2017-11-15T03:03:39.597Z,66.3
2017-11-15T03:03:51.861Z,66
2017-11-15T03:04:03.185Z,66.4
2017-11-15T03:04:14.474Z,66.3
2017-11-15T03:04:25.871Z,66.3
2017-11-15T03:04:37.245Z,66.4
2017-11-15T03:04:48.583Z,66.3
2017-11-15T03:05:04.030Z,66.3
2017-11-15T03:05:16.168Z,66.2
2017-11-15T03:05:31.472Z,66.3
2017-11-15T03:05:47.593Z,66.4
2017-11-15T03:06:21.209Z,66
2017-11-15T03:06:33.510Z,66.1
2017-11-15T03:06:48.843Z,66
2017-11-15T03:07:03.048Z,66.2
2017-11-15T03:07:13.958Z,66.3
2017-11-15T03:07:25.289Z,66.3
2017-11-15T03:07:36.713Z,66.6
2017-11-15T03:07:48.034Z,66.6
2017-11-15T03:08:01.368Z,66.5
2017-11-15T03:08:12.344Z,66.4
2017-11-15T03:08:27.708Z,66.1
2017-11-15T03:08:39.804Z,66.2
2017-11-15T03:08:51.195Z,66.2
2017-11-15T03:09:02.561Z,66.1
2017-11-15T03:09:13.971Z,66.5
2017-11-15T03:09:37.323Z,66.3
2017-11-15T03:10:01.382Z,66.6
2017-11-15T03:10:17.641Z,66.5
2017-11-15T03:10:29.694Z,66.1
2017-11-15T03:10:43.033Z,66.1
2017-11-15T03:10:58.046Z,66
2017-11-15T03:11:10.144Z,66.1
2017-11-15T03:11:25.518Z,65.9
2017-11-15T03:11:37.699Z,65.9
2017-11-15T03:11:50.017Z,66.1
2017-11-15T03:12:06.012Z,66
2017-11-15T03:12:18.139Z,66.2
2017-11-15T03:12:33.453Z,66.7
2017-11-15T03:12:45.650Z,66.3
2017-11-15T03:13:03.488Z,66.6
2017-11-15T03:13:24.621Z,66.1
2017-11-15T03:15:11.072Z,66.1
2017-11-15T03:15:27.130Z,65.8
2017-11-15T03:15:43.294Z,66.3
2017-11-15T03:15:59.441Z,66.5
2017-11-15T03:16:15.670Z,65.9
2017-11-15T03:16:31.814Z,65.6
2017-11-15T03:16:43.871Z,65.9
2017-11-15T03:16:55.288Z,66
2017-11-15T03:17:10.642Z,65.7
2017-11-15T03:17:26.790Z,65.8
2017-11-15T03:17:43.605Z,65.8
2017-11-15T03:17:59.073Z,66
2017-11-15T03:18:15.269Z,65.4
2017-11-15T03:18:31.328Z,66
2017-11-15T03:18:43.515Z,66
2017-11-15T03:18:54.847Z,65.9
2017-11-15T03:19:10.276Z,65.8
2017-11-15T03:19:22.426Z,65.6
2017-11-15T03:19:37.789Z,65.6
2017-11-15T03:19:49.991Z,65.8
2017-11-15T03:20:01.284Z,66
2017-11-15T03:20:16.650Z,65.7
2017-11-15T03:20:32.747Z,66.1
2017-11-15T03:20:48.885Z,65.9
2017-11-15T03:21:01.144Z,66.1